sensor_id;sensor_type;location;lat;lon;timestamp;pressure;altitude;pressure_sealevel;temperature;humidity
60489;BME280;46331;49.252;8.904;2023-03-19T00:00:23;99459.16;;;9.01;81.87
60489;BME280;46331;49.252;8.904;2023-03-19T00:01:06;99460.28;;;9.05;81.66
60489;BME280;46331;49.252;8.904;2023-03-19T00:01:47;99457.97;;;9.08;81.76
60489;BME280;46331;49.252;8.904;2023-03-19T00:02:27;99456.47;;;9.12;81.54
60489;BME280;46331;49.252;8.904;2023-03-19T00:03:08;99458.09;;;9.13;81.43
60489;BME280;46331;49.252;8.904;2023-03-19T00:03:48;99460.50;;;9.15;80.87
60489;BME280;46331;49.252;8.904;2023-03-19T00:04:29;99456.00;;;9.16;80.75
60489;BME280;46331;49.252;8.904;2023-03-19T00:05:10;99458.91;;;9.14;80.37
60489;BME280;46331;49.252;8.904;2023-03-19T00:05:52;99461.78;;;9.12;80.18
60489;BME280;46331;49.252;8.904;2023-03-19T00:06:33;99473.06;;;9.08;80.33
60489;BME280;46331;49.252;8.904;2023-03-19T00:07:14;99466.38;;;9.05;80.78
60489;BME280;46331;49.252;8.904;2023-03-19T00:07:55;99466.38;;;9.05;80.74
60489;BME280;46331;49.252;8.904;2023-03-19T00:08:36;99463.50;;;9.07;80.58
60489;BME280;46331;49.252;8.904;2023-03-19T00:09:17;99464.66;;;9.11;80.52
60489;BME280;46331;49.252;8.904;2023-03-19T00:09:58;99456.94;;;9.09;80.67
60489;BME280;46331;49.252;8.904;2023-03-19T00:10:39;99466.53;;;8.99;81.10
60489;BME280;46331;49.252;8.904;2023-03-19T00:11:19;99477.56;;;8.95;80.77
60489;BME280;46331;49.252;8.904;2023-03-19T00:12:00;99475.38;;;8.92;81.74
60489;BME280;46331;49.252;8.904;2023-03-19T00:12:41;99473.09;;;8.84;82.47
60489;BME280;46331;49.252;8.904;2023-03-19T00:13:21;99461.00;;;8.88;82.94
60489;BME280;46331;49.252;8.904;2023-03-19T00:14:02;99469.41;;;8.85;82.68
60489;BME280;46331;49.252;8.904;2023-03-19T00:14:43;99467.22;;;8.82;82.69
60489;BME280;46331;49.252;8.904;2023-03-19T00:15:23;99468.16;;;8.76;82.19
60489;BME280;46331;49.252;8.904;2023-03-19T00:16:05;99469.31;;;8.68;82.94
60489;BME280;46331;49.252;8.904;2023-03-19T00:16:46;99473.22;;;8.66;83.27
60489;BME280;46331;49.252;8.904;2023-03-19T00:17:26;99474.34;;;8.70;83.52
60489;BME280;46331;49.252;8.904;2023-03-19T00:18:07;99480.81;;;8.74;83.53
60489;BME280;46331;49.252;8.904;2023-03-19T00:18:48;99462.53;;;8.72;83.45
60489;BME280;46331;49.252;8.904;2023-03-19T00:19:28;99468.03;;;8.71;83.37
60489;BME280;46331;49.252;8.904;2023-03-19T00:20:11;99466.44;;;8.70;83.85
60489;BME280;46331;49.252;8.904;2023-03-19T00:20:52;99467.56;;;8.62;83.34
60489;BME280;46331;49.252;8.904;2023-03-19T00:21:32;99471.75;;;8.58;83.39
60489;BME280;46331;49.252;8.904;2023-03-19T00:22:13;99477.47;;;8.55;83.47
60489;BME280;46331;49.252;8.904;2023-03-19T00:22:53;99470.13;;;8.57;83.63
60489;BME280;46331;49.252;8.904;2023-03-19T00:23:34;99474.38;;;8.58;83.45
60489;BME280;46331;49.252;8.904;2023-03-19T00:24:16;99484.13;;;8.57;83.41
60489;BME280;46331;49.252;8.904;2023-03-19T00:24:57;99476.44;;;8.56;83.35
60489;BME280;46331;49.252;8.904;2023-03-19T00:25:37;99473.22;;;8.54;83.73
60489;BME280;46331;49.252;8.904;2023-03-19T00:26:18;99482.53;;;8.56;83.85
60489;BME280;46331;49.252;8.904;2023-03-19T00:26:59;99478.97;;;8.63;83.82
60489;BME280;46331;49.252;8.904;2023-03-19T00:27:40;99476.91;;;8.65;83.42
60489;BME280;46331;49.252;8.904;2023-03-19T00:28:21;99476.44;;;8.68;83.49
60489;BME280;46331;49.252;8.904;2023-03-19T00:29:02;99476.44;;;8.68;83.58
60489;BME280;46331;49.252;8.904;2023-03-19T00:29:43;99476.44;;;8.68;83.63
60489;BME280;46331;49.252;8.904;2023-03-19T00:30:24;99467.47;;;8.69;83.45
60489;BME280;46331;49.252;8.904;2023-03-19T00:31:09;99468.03;;;8.71;83.42
60489;BME280;46331;49.252;8.904;2023-03-19T00:31:50;99473.09;;;8.72;83.49
60489;BME280;46331;49.252;8.904;2023-03-19T00:32:31;99473.44;;;8.76;83.50
60489;BME280;46331;49.252;8.904;2023-03-19T00:33:13;99476.91;;;8.76;83.12
60489;BME280;46331;49.252;8.904;2023-03-19T00:33:58;99479.09;;;8.80;83.40
60489;BME280;46331;49.252;8.904;2023-03-19T00:34:39;99472.28;;;8.84;83.34
60489;BME280;46331;49.252;8.904;2023-03-19T00:35:20;99475.28;;;8.87;83.33
60489;BME280;46331;49.252;8.904;2023-03-19T00:36:01;99480.56;;;8.87;83.07
60489;BME280;46331;49.252;8.904;2023-03-19T00:36:41;99481.94;;;8.90;82.74
60489;BME280;46331;49.252;8.904;2023-03-19T00:37:22;99479.50;;;8.88;82.69
60489;BME280;46331;49.252;8.904;2023-03-19T00:38:03;99472.50;;;8.82;83.41
60489;BME280;46331;49.252;8.904;2023-03-19T00:38:45;99480.09;;;8.90;83.19
60489;BME280;46331;49.252;8.904;2023-03-19T00:39:26;99480.69;;;8.92;82.86
60489;BME280;46331;49.252;8.904;2023-03-19T00:40:07;99480.91;;;8.91;82.49
60489;BME280;46331;49.252;8.904;2023-03-19T00:40:49;99480.44;;;8.94;82.73
60489;BME280;46331;49.252;8.904;2023-03-19T00:41:30;99490.78;;;8.95;82.55
60489;BME280;46331;49.252;8.904;2023-03-19T00:42:11;99483.41;;;8.98;82.83
60489;BME280;46331;49.252;8.904;2023-03-19T00:42:52;99483.19;;;8.99;82.43
60489;BME280;46331;49.252;8.904;2023-03-19T00:43:33;99492.03;;;9.05;82.43
60489;BME280;46331;49.252;8.904;2023-03-19T00:44:13;99483.88;;;9.06;82.63
60489;BME280;46331;49.252;8.904;2023-03-19T00:44:54;99473.28;;;9.06;82.45
60489;BME280;46331;49.252;8.904;2023-03-19T00:45:35;99478.59;;;9.06;82.27
60489;BME280;46331;49.252;8.904;2023-03-19T00:46:15;99470.41;;;9.08;82.15
60489;BME280;46331;49.252;8.904;2023-03-19T00:46:57;99471.44;;;9.07;82.35
60489;BME280;46331;49.252;8.904;2023-03-19T00:47:38;99460.84;;;9.07;82.00
60489;BME280;46331;49.252;8.904;2023-03-19T00:48:19;99463.50;;;9.07;82.62
60489;BME280;46331;49.252;8.904;2023-03-19T00:49:00;99455.81;;;9.05;82.45
60489;BME280;46331;49.252;8.904;2023-03-19T00:49:41;99455.47;;;9.02;82.49
60489;BME280;46331;49.252;8.904;2023-03-19T00:50:23;99461.78;;;9.01;82.51
60489;BME280;46331;49.252;8.904;2023-03-19T00:51:06;99463.09;;;8.98;82.78
60489;BME280;46331;49.252;8.904;2023-03-19T00:51:47;99463.19;;;8.91;83.17
60489;BME280;46331;49.252;8.904;2023-03-19T00:52:27;99464.38;;;8.72;84.51
60489;BME280;46331;49.252;8.904;2023-03-19T00:53:08;99455.16;;;8.74;85.01
60489;BME280;46331;49.252;8.904;2023-03-19T00:53:50;99457.94;;;8.80;84.71
60489;BME280;46331;49.252;8.904;2023-03-19T00:54:31;99461.38;;;8.80;84.62
60489;BME280;46331;49.252;8.904;2023-03-19T00:55:12;99468.50;;;8.80;84.66
60489;BME280;46331;49.252;8.904;2023-03-19T00:55:53;99465.41;;;8.83;84.62
60489;BME280;46331;49.252;8.904;2023-03-19T00:56:33;99473.44;;;8.76;84.23
60489;BME280;46331;49.252;8.904;2023-03-19T00:57:14;99474.25;;;8.76;83.95
60489;BME280;46331;49.252;8.904;2023-03-19T00:57:55;99477.56;;;8.84;84.36
60489;BME280;46331;49.252;8.904;2023-03-19T00:58:35;99461.38;;;8.80;84.02
60489;BME280;46331;49.252;8.904;2023-03-19T00:59:18;99467.44;;;8.81;84.60
60489;BME280;46331;49.252;8.904;2023-03-19T00:59:58;99466.44;;;8.82;84.07
60489;BME280;46331;49.252;8.904;2023-03-19T01:00:40;99468.03;;;8.83;84.01
60489;BME280;46331;49.252;8.904;2023-03-19T01:01:23;99464.34;;;8.84;84.57
60489;BME280;46331;49.252;8.904;2023-03-19T01:02:04;99465.41;;;8.83;84.39
60489;BME280;46331;49.252;8.904;2023-03-19T01:02:45;99469.63;;;8.84;84.10
60489;BME280;46331;49.252;8.904;2023-03-19T01:03:25;99457.09;;;8.79;84.39
60489;BME280;46331;49.252;8.904;2023-03-19T01:04:06;99444.47;;;8.81;84.22
60489;BME280;46331;49.252;8.904;2023-03-19T01:04:47;99453.22;;;8.82;84.21
60489;BME280;46331;49.252;8.904;2023-03-19T01:05:29;99450.56;;;8.82;84.12
60489;BME280;46331;49.252;8.904;2023-03-19T01:06:09;99459.09;;;8.72;84.21
60489;BME280;46331;49.252;8.904;2023-03-19T01:06:51;99459.78;;;8.67;84.79
60489;BME280;46331;49.252;8.904;2023-03-19T01:07:32;99463.69;;;8.65;85.10
60489;BME280;46331;49.252;8.904;2023-03-19T01:08:12;99461.94;;;8.47;87.13
60489;BME280;46331;49.252;8.904;2023-03-19T01:08:53;99461.50;;;8.62;86.68
60489;BME280;46331;49.252;8.904;2023-03-19T01:09:34;99467.13;;;8.65;86.22
60489;BME280;46331;49.252;8.904;2023-03-19T01:10:19;99465.31;;;8.66;85.98
60489;BME280;46331;49.252;8.904;2023-03-19T01:11:06;99458.97;;;8.67;86.31
60489;BME280;46331;49.252;8.904;2023-03-19T01:11:47;99464.72;;;8.64;86.01
60489;BME280;46331;49.252;8.904;2023-03-19T01:12:28;99469.66;;;8.60;85.38
60489;BME280;46331;49.252;8.904;2023-03-19T01:13:09;99467.81;;;8.61;86.10
60489;BME280;46331;49.252;8.904;2023-03-19T01:13:50;99470.59;;;8.66;86.26
60489;BME280;46331;49.252;8.904;2023-03-19T01:14:31;99471.94;;;8.68;85.93
60489;BME280;46331;49.252;8.904;2023-03-19T01:15:11;99473.78;;;8.68;86.25
60489;BME280;46331;49.252;8.904;2023-03-19T01:15:52;99464.84;;;8.69;85.68
60489;BME280;46331;49.252;8.904;2023-03-19T01:16:34;99461.13;;;8.70;85.64
60489;BME280;46331;49.252;8.904;2023-03-19T01:17:15;99465.41;;;8.71;85.68
60489;BME280;46331;49.252;8.904;2023-03-19T01:17:55;99463.31;;;8.73;85.82
60489;BME280;46331;49.252;8.904;2023-03-19T01:18:36;99472.66;;;8.75;85.41
60489;BME280;46331;49.252;8.904;2023-03-19T01:19:17;99465.50;;;8.76;85.09
60489;BME280;46331;49.252;8.904;2023-03-19T01:19:58;99466.88;;;8.79;85.39
60489;BME280;46331;49.252;8.904;2023-03-19T01:20:39;99457.94;;;8.80;84.79
60489;BME280;46331;49.252;8.904;2023-03-19T01:21:21;99462.75;;;8.83;84.24
60489;BME280;46331;49.252;8.904;2023-03-19T01:22:03;99467.00;;;8.84;84.08
60489;BME280;46331;49.252;8.904;2023-03-19T01:22:45;99468.28;;;8.81;84.41
60489;BME280;46331;49.252;8.904;2023-03-19T01:23:26;99474.94;;;8.72;85.53
60489;BME280;46331;49.252;8.904;2023-03-19T01:24:07;99463.78;;;8.82;85.51
60489;BME280;46331;49.252;8.904;2023-03-19T01:24:47;99474.13;;;8.83;85.26
60489;BME280;46331;49.252;8.904;2023-03-19T01:25:28;99465.97;;;8.85;84.83
60489;BME280;46331;49.252;8.904;2023-03-19T01:26:16;99478.97;;;8.86;85.12
60489;BME280;46331;49.252;8.904;2023-03-19T01:26:57;99470.56;;;8.89;85.03
60489;BME280;46331;49.252;8.904;2023-03-19T01:27:44;99482.63;;;8.85;84.86
60489;BME280;46331;49.252;8.904;2023-03-19T01:28:27;99484.94;;;8.82;84.95
60489;BME280;46331;49.252;8.904;2023-03-19T01:29:08;99481.59;;;8.74;86.25
60489;BME280;46331;49.252;8.904;2023-03-19T01:29:49;99485.03;;;8.87;86.59
60489;BME280;46331;49.252;8.904;2023-03-19T01:30:39;99476.88;;;8.88;86.20
60489;BME280;46331;49.252;8.904;2023-03-19T01:31:47;99487.91;;;8.85;85.44
60489;BME280;46331;49.252;8.904;2023-03-19T01:32:54;99483.78;;;8.89;85.07
60489;BME280;46331;49.252;8.904;2023-03-19T01:33:57;99478.03;;;8.92;85.09
60489;BME280;46331;49.252;8.904;2023-03-19T01:34:59;99479.19;;;8.97;85.32
60489;BME280;46331;49.252;8.904;2023-03-19T01:35:39;99476.78;;;8.95;84.87
60489;BME280;46331;49.252;8.904;2023-03-19T01:36:21;99473.44;;;9.00;84.95
60489;BME280;46331;49.252;8.904;2023-03-19T01:37:14;99474.78;;;9.02;84.88
60489;BME280;46331;49.252;8.904;2023-03-19T01:37:56;99470.09;;;9.04;84.58
60489;BME280;46331;49.252;8.904;2023-03-19T01:38:37;99468.00;;;9.06;84.03
60489;BME280;46331;49.252;8.904;2023-03-19T01:39:22;99477.31;;;9.09;83.91
60489;BME280;46331;49.252;8.904;2023-03-19T01:40:04;99476.25;;;9.10;84.06
60489;BME280;46331;49.252;8.904;2023-03-19T01:40:46;99477.78;;;9.06;83.57
60489;BME280;46331;49.252;8.904;2023-03-19T01:41:27;99482.03;;;9.07;83.54
60489;BME280;46331;49.252;8.904;2023-03-19T01:42:13;99480.31;;;9.01;83.68
60489;BME280;46331;49.252;8.904;2023-03-19T01:43:27;99483.88;;;8.94;84.10
60489;BME280;46331;49.252;8.904;2023-03-19T01:44:29;99483.31;;;9.04;83.72
60489;BME280;46331;49.252;8.904;2023-03-19T01:45:36;99485.38;;;9.02;83.82
60489;BME280;46331;49.252;8.904;2023-03-19T01:46:37;99482.94;;;9.01;83.60
60489;BME280;46331;49.252;8.904;2023-03-19T01:47:38;99490.09;;;8.88;84.10
60489;BME280;46331;49.252;8.904;2023-03-19T01:48:43;99490.47;;;8.80;83.99
60489;BME280;46331;49.252;8.904;2023-03-19T01:49:29;99492.63;;;8.83;83.98
60489;BME280;46331;49.252;8.904;2023-03-19T01:51:40;99492.16;;;8.74;84.17
60489;BME280;46331;49.252;8.904;2023-03-19T01:52:44;99497.00;;;8.77;83.96
60489;BME280;46331;49.252;8.904;2023-03-19T01:53:39;99489.19;;;8.83;84.39
60489;BME280;46331;49.252;8.904;2023-03-19T01:54:31;99491.16;;;8.87;84.58
60489;BME280;46331;49.252;8.904;2023-03-19T01:55:29;99492.28;;;8.91;84.59
60489;BME280;46331;49.252;8.904;2023-03-19T01:56:44;99496.78;;;8.91;84.49
60489;BME280;46331;49.252;8.904;2023-03-19T01:57:47;99505.72;;;8.90;84.31
60489;BME280;46331;49.252;8.904;2023-03-19T01:58:47;99502.28;;;8.89;84.46
60489;BME280;46331;49.252;8.904;2023-03-19T01:59:52;99503.22;;;8.95;84.80
60489;BME280;46331;49.252;8.904;2023-03-19T02:00:52;99511.25;;;9.00;84.76
60489;BME280;46331;49.252;8.904;2023-03-19T02:01:38;99506.53;;;9.02;84.56
60489;BME280;46331;49.252;8.904;2023-03-19T02:03:09;99509.53;;;9.06;84.28
60489;BME280;46331;49.252;8.904;2023-03-19T02:04:09;99505.81;;;9.07;83.92
60489;BME280;46331;49.252;8.904;2023-03-19T02:04:55;99512.19;;;9.06;83.92
60489;BME280;46331;49.252;8.904;2023-03-19T02:05:37;99509.28;;;9.07;83.95
60489;BME280;46331;49.252;8.904;2023-03-19T02:06:22;99509.06;;;9.09;84.00
60489;BME280;46331;49.252;8.904;2023-03-19T02:07:04;99509.63;;;9.11;84.01
60489;BME280;46331;49.252;8.904;2023-03-19T02:07:45;99515.94;;;9.10;83.85
60489;BME280;46331;49.252;8.904;2023-03-19T02:08:26;99513.88;;;9.12;84.22
60489;BME280;46331;49.252;8.904;2023-03-19T02:09:08;99520.78;;;9.13;83.85
60489;BME280;46331;49.252;8.904;2023-03-19T02:09:49;99517.09;;;9.14;83.75
60489;BME280;46331;49.252;8.904;2023-03-19T02:10:30;99518.72;;;9.15;83.81
60489;BME280;46331;49.252;8.904;2023-03-19T02:11:11;99509.72;;;9.16;83.83
60489;BME280;46331;49.252;8.904;2023-03-19T02:11:52;99508.13;;;9.15;83.02
60489;BME280;46331;49.252;8.904;2023-03-19T02:12:34;99508.13;;;9.15;83.08
60489;BME280;46331;49.252;8.904;2023-03-19T02:13:15;99507.31;;;9.15;82.96
60489;BME280;46331;49.252;8.904;2023-03-19T02:13:55;99515.25;;;9.15;83.25
60489;BME280;46331;49.252;8.904;2023-03-19T02:14:36;99508.69;;;9.17;83.48
60489;BME280;46331;49.252;8.904;2023-03-19T02:15:17;99503.72;;;9.21;83.45
60489;BME280;46331;49.252;8.904;2023-03-19T02:15:58;99509.84;;;9.21;83.21
60489;BME280;46331;49.252;8.904;2023-03-19T02:16:38;99506.16;;;9.22;83.08
60489;BME280;46331;49.252;8.904;2023-03-19T02:17:20;99511.09;;;9.19;83.00
60489;BME280;46331;49.252;8.904;2023-03-19T02:18:01;99509.38;;;9.24;83.26
60489;BME280;46331;49.252;8.904;2023-03-19T02:18:43;99507.28;;;9.26;83.06
60489;BME280;46331;49.252;8.904;2023-03-19T02:21:15;99509.00;;;9.33;82.79
60489;BME280;46331;49.252;8.904;2023-03-19T02:21:59;99500.59;;;9.36;83.48
60489;BME280;46331;49.252;8.904;2023-03-19T02:24:16;99508.06;;;9.39;82.66
60489;BME280;46331;49.252;8.904;2023-03-19T02:25:16;99508.06;;;9.39;82.36
60489;BME280;46331;49.252;8.904;2023-03-19T02:26:46;99504.63;;;9.38;82.21
60489;BME280;46331;49.252;8.904;2023-03-19T02:27:28;99502.00;;;9.38;82.27
60489;BME280;46331;49.252;8.904;2023-03-19T02:28:09;99506.47;;;9.38;82.41
60489;BME280;46331;49.252;8.904;2023-03-19T02:28:52;99501.41;;;9.36;82.27
60489;BME280;46331;49.252;8.904;2023-03-19T02:29:40;99503.25;;;9.36;82.64
60489;BME280;46331;49.252;8.904;2023-03-19T02:30:27;99513.59;;;9.37;82.87
60489;BME280;46331;49.252;8.904;2023-03-19T02:31:11;99511.19;;;9.36;82.54
60489;BME280;46331;49.252;8.904;2023-03-19T02:31:53;99507.97;;;9.34;82.71
60489;BME280;46331;49.252;8.904;2023-03-19T02:32:33;99501.88;;;9.33;82.75
60489;BME280;46331;49.252;8.904;2023-03-19T02:33:16;99508.44;;;9.30;82.80
60489;BME280;46331;49.252;8.904;2023-03-19T02:34:03;99511.09;;;9.30;83.46
60489;BME280;46331;49.252;8.904;2023-03-19T02:34:46;99506.28;;;9.27;83.13
60489;BME280;46331;49.252;8.904;2023-03-19T02:35:31;99512.72;;;9.20;83.44
60489;BME280;46331;49.252;8.904;2023-03-19T02:36:15;99512.25;;;9.23;83.48
60489;BME280;46331;49.252;8.904;2023-03-19T02:37:04;99512.50;;;9.21;83.40
60489;BME280;46331;49.252;8.904;2023-03-19T02:37:47;99511.91;;;9.19;83.94
60489;BME280;46331;49.252;8.904;2023-03-19T02:38:29;99515.47;;;9.13;83.68
60489;BME280;46331;49.252;8.904;2023-03-19T02:39:23;99517.47;;;9.06;83.96
60489;BME280;46331;49.252;8.904;2023-03-19T02:40:12;99516.41;;;9.07;84.20
60489;BME280;46331;49.252;8.904;2023-03-19T02:41:01;99513.19;;;9.05;84.21
60489;BME280;46331;49.252;8.904;2023-03-19T02:41:44;99510.31;;;8.94;84.50
60489;BME280;46331;49.252;8.904;2023-03-19T02:42:27;99519.09;;;8.95;84.64
60489;BME280;46331;49.252;8.904;2023-03-19T02:43:10;99518.50;;;8.93;84.76
60489;BME280;46331;49.252;8.904;2023-03-19T02:43:50;99519.88;;;8.84;85.17
60489;BME280;46331;49.252;8.904;2023-03-19T02:44:31;99523.09;;;8.74;85.57
60489;BME280;46331;49.252;8.904;2023-03-19T02:45:12;99522.31;;;8.73;85.62
60489;BME280;46331;49.252;8.904;2023-03-19T02:45:53;99513.56;;;8.73;86.18
60489;BME280;46331;49.252;8.904;2023-03-19T02:46:35;99519.44;;;8.75;86.37
60489;BME280;46331;49.252;8.904;2023-03-19T02:47:16;99511.75;;;8.73;86.03
60489;BME280;46331;49.252;8.904;2023-03-19T02:47:57;99507.94;;;8.69;86.10
60489;BME280;46331;49.252;8.904;2023-03-19T02:48:38;99520.34;;;8.69;86.31
60489;BME280;46331;49.252;8.904;2023-03-19T02:49:20;99514.69;;;8.65;86.82
60489;BME280;46331;49.252;8.904;2023-03-19T02:50:01;99513.34;;;8.63;86.48
60489;BME280;46331;49.252;8.904;2023-03-19T02:50:41;99509.09;;;8.62;86.51
60489;BME280;46331;49.252;8.904;2023-03-19T02:51:22;99511.72;;;8.62;86.60
60489;BME280;46331;49.252;8.904;2023-03-19T02:52:02;99521.72;;;8.59;86.51
60489;BME280;46331;49.252;8.904;2023-03-19T02:52:43;99514.81;;;8.58;86.49
60489;BME280;46331;49.252;8.904;2023-03-19T02:53:24;99519.31;;;8.58;86.45
60489;BME280;46331;49.252;8.904;2023-03-19T02:54:05;99522.19;;;8.56;86.51
60489;BME280;46331;49.252;8.904;2023-03-19T02:54:46;99515.28;;;8.55;86.45
60489;BME280;46331;49.252;8.904;2023-03-19T02:55:27;99521.81;;;8.53;86.90
60489;BME280;46331;49.252;8.904;2023-03-19T02:56:08;99522.66;;;8.53;86.75
60489;BME280;46331;49.252;8.904;2023-03-19T02:56:49;99520.22;;;8.52;86.72
60489;BME280;46331;49.252;8.904;2023-03-19T02:57:31;99513.31;;;8.51;86.77
60489;BME280;46331;49.252;8.904;2023-03-19T02:58:12;99509.28;;;8.48;86.86
60489;BME280;46331;49.252;8.904;2023-03-19T02:58:52;99516.19;;;8.49;86.78
60489;BME280;46331;49.252;8.904;2023-03-19T02:59:33;99517.22;;;8.48;86.91
60489;BME280;46331;49.252;8.904;2023-03-19T03:00:15;99506.88;;;8.47;87.30
60489;BME280;46331;49.252;8.904;2023-03-19T03:00:58;99516.66;;;8.46;87.28
60489;BME280;46331;49.252;8.904;2023-03-19T03:01:38;99515.03;;;8.45;87.33
60489;BME280;46331;49.252;8.904;2023-03-19T03:02:19;99511.78;;;8.43;87.30
60489;BME280;46331;49.252;8.904;2023-03-19T03:03:02;99515.69;;;8.40;87.24
60489;BME280;46331;49.252;8.904;2023-03-19T03:03:44;99512.47;;;8.38;87.28
60489;BME280;46331;49.252;8.904;2023-03-19T03:04:24;99511.06;;;8.36;87.34
60489;BME280;46331;49.252;8.904;2023-03-19T03:05:06;99510.50;;;8.34;87.67
60489;BME280;46331;49.252;8.904;2023-03-19T03:05:48;99516.59;;;8.34;88.23
60489;BME280;46331;49.252;8.904;2023-03-19T03:06:28;99513.94;;;8.34;87.97
60489;BME280;46331;49.252;8.904;2023-03-19T03:07:10;99517.41;;;8.35;88.27
60489;BME280;46331;49.252;8.904;2023-03-19T03:07:50;99512.38;;;8.33;88.28
60489;BME280;46331;49.252;8.904;2023-03-19T03:08:31;99508.91;;;8.33;88.49
60489;BME280;46331;49.252;8.904;2023-03-19T03:09:13;99516.81;;;8.33;88.06
60489;BME280;46331;49.252;8.904;2023-03-19T03:09:53;99518.09;;;8.30;88.58
60489;BME280;46331;49.252;8.904;2023-03-19T03:10:34;99522.34;;;8.31;88.41
60489;BME280;46331;49.252;8.904;2023-03-19T03:11:14;99518.66;;;8.32;88.84
60489;BME280;46331;49.252;8.904;2023-03-19T03:11:55;99520.75;;;8.30;88.49
60489;BME280;46331;49.252;8.904;2023-03-19T03:12:36;99519.34;;;8.28;88.91
60489;BME280;46331;49.252;8.904;2023-03-19T03:13:17;99522.22;;;8.26;88.93
60489;BME280;46331;49.252;8.904;2023-03-19T03:13:58;99524.28;;;8.24;89.08
60489;BME280;46331;49.252;8.904;2023-03-19T03:14:40;99509.69;;;8.21;89.15
60489;BME280;46331;49.252;8.904;2023-03-19T03:15:21;99521.88;;;8.22;89.57
60489;BME280;46331;49.252;8.904;2023-03-19T03:16:01;99518.63;;;8.20;89.52
60489;BME280;46331;49.252;8.904;2023-03-19T03:16:42;99519.09;;;8.17;89.33
60489;BME280;46331;49.252;8.904;2023-03-19T03:17:22;99515.66;;;8.17;89.33
60489;BME280;46331;49.252;8.904;2023-03-19T03:18:03;99514.25;;;8.14;88.76
60489;BME280;46331;49.252;8.904;2023-03-19T03:18:44;99516.56;;;8.11;89.39
60489;BME280;46331;49.252;8.904;2023-03-19T03:19:24;99516.91;;;8.14;89.43
60489;BME280;46331;49.252;8.904;2023-03-19T03:20:09;99520.38;;;8.15;88.86
60489;BME280;46331;49.252;8.904;2023-03-19T03:20:50;99521.59;;;8.12;89.12
60489;BME280;46331;49.252;8.904;2023-03-19T03:21:32;99526.44;;;8.15;89.54
60489;BME280;46331;49.252;8.904;2023-03-19T03:22:13;99518.97;;;8.12;88.73
60489;BME280;46331;49.252;8.904;2023-03-19T03:22:53;99519.75;;;8.13;88.74
60489;BME280;46331;49.252;8.904;2023-03-19T03:23:34;99525.66;;;8.15;88.67
60489;BME280;46331;49.252;8.904;2023-03-19T03:24:16;99525.88;;;8.13;89.00
60489;BME280;46331;49.252;8.904;2023-03-19T03:24:56;99529.31;;;8.14;89.19
60489;BME280;46331;49.252;8.904;2023-03-19T03:25:37;99523.47;;;8.12;88.78
60489;BME280;46331;49.252;8.904;2023-03-19T03:26:18;99526.88;;;8.12;88.99
60489;BME280;46331;49.252;8.904;2023-03-19T03:26:58;99530.31;;;8.13;88.55
60489;BME280;46331;49.252;8.904;2023-03-19T03:27:39;99526.16;;;8.05;88.33
60489;BME280;46331;49.252;8.904;2023-03-19T03:28:20;99537.13;;;8.09;88.99
60489;BME280;46331;49.252;8.904;2023-03-19T03:29:01;99525.81;;;8.01;88.82
60489;BME280;46331;49.252;8.904;2023-03-19T03:29:41;99528.25;;;8.03;88.63
60489;BME280;46331;49.252;8.904;2023-03-19T03:30:22;99530.88;;;8.03;88.41
60489;BME280;46331;49.252;8.904;2023-03-19T03:31:03;99537.78;;;8.04;88.42
60489;BME280;46331;49.252;8.904;2023-03-19T03:31:43;99532.13;;;8.00;88.24
60489;BME280;46331;49.252;8.904;2023-03-19T03:32:24;99538.47;;;7.99;88.42
60489;BME280;46331;49.252;8.904;2023-03-19T03:33:05;99543.38;;;7.96;88.58
60489;BME280;46331;49.252;8.904;2023-03-19T03:33:46;99531.78;;;7.97;88.70
60489;BME280;46331;49.252;8.904;2023-03-19T03:34:28;99541.78;;;7.95;88.61
60489;BME280;46331;49.252;8.904;2023-03-19T03:35:10;99536.56;;;7.88;89.14
60489;BME280;46331;49.252;8.904;2023-03-19T03:35:51;99531.28;;;7.88;89.10
60489;BME280;46331;49.252;8.904;2023-03-19T03:36:31;99536.34;;;7.90;88.68
60489;BME280;46331;49.252;8.904;2023-03-19T03:37:13;99536.56;;;7.88;88.76
60489;BME280;46331;49.252;8.904;2023-03-19T03:37:54;99537.56;;;7.87;88.37
60489;BME280;46331;49.252;8.904;2023-03-19T03:38:34;99527.63;;;7.89;88.30
60489;BME280;46331;49.252;8.904;2023-03-19T03:39:15;99535.75;;;7.87;87.91
60489;BME280;46331;49.252;8.904;2023-03-19T03:39:56;99534.72;;;7.88;88.47
60489;BME280;46331;49.252;8.904;2023-03-19T03:40:37;99530.03;;;7.91;88.14
60489;BME280;46331;49.252;8.904;2023-03-19T03:41:17;99541.16;;;7.93;88.12
60489;BME280;46331;49.252;8.904;2023-03-19T03:41:58;99527.75;;;7.94;88.36
60489;BME280;46331;49.252;8.904;2023-03-19T03:42:40;99534.66;;;7.95;87.67
60489;BME280;46331;49.252;8.904;2023-03-19T03:43:22;99529.59;;;7.94;87.32
60489;BME280;46331;49.252;8.904;2023-03-19T03:44:03;99537.63;;;7.99;87.86
60489;BME280;46331;49.252;8.904;2023-03-19T03:44:47;99535.81;;;7.99;87.31
60489;BME280;46331;49.252;8.904;2023-03-19T03:45:28;99529.50;;;8.00;86.83
60489;BME280;46331;49.252;8.904;2023-03-19T03:46:08;99537.63;;;7.99;87.34
60489;BME280;46331;49.252;8.904;2023-03-19T03:46:49;99540.88;;;8.01;86.91
60489;BME280;46331;49.252;8.904;2023-03-19T03:47:30;99544.31;;;8.01;87.10
60489;BME280;46331;49.252;8.904;2023-03-19T03:48:12;99539.25;;;8.00;86.43
60489;BME280;46331;49.252;8.904;2023-03-19T03:48:52;99539.03;;;8.01;86.35
60489;BME280;46331;49.252;8.904;2023-03-19T03:49:33;99545.09;;;8.02;86.50
60489;BME280;46331;49.252;8.904;2023-03-19T03:50:14;99538.00;;;8.02;86.42
60489;BME280;46331;49.252;8.904;2023-03-19T03:50:55;99544.88;;;8.03;86.69
60489;BME280;46331;49.252;8.904;2023-03-19T03:51:40;99547.31;;;8.05;86.79
60489;BME280;46331;49.252;8.904;2023-03-19T03:52:21;99534.91;;;8.05;87.19
60489;BME280;46331;49.252;8.904;2023-03-19T03:53:02;99540.78;;;8.08;86.41
60489;BME280;46331;49.252;8.904;2023-03-19T03:53:42;99544.81;;;8.10;86.70
60489;BME280;46331;49.252;8.904;2023-03-19T03:54:23;99543.53;;;8.13;86.57
60489;BME280;46331;49.252;8.904;2023-03-19T03:55:05;99546.78;;;8.15;86.03
60489;BME280;46331;49.252;8.904;2023-03-19T03:55:45;99547.13;;;8.18;85.93
60489;BME280;46331;49.252;8.904;2023-03-19T03:56:26;99542.63;;;8.19;85.63
60489;BME280;46331;49.252;8.904;2023-03-19T03:57:07;99541.16;;;8.23;85.76